Cruzeiro Do Canal — CSVG — position and weather

sailwx.info

Track history (hours):
 
Tides and Currents Weather Stations Pressure Air Temp Water Temp Dewpoint Dewpoint Depression Visibility Wind Speed Wind Dir Waves Ship Positions

Cruzeiro Do Canal

Last reported at 2017-Feb-13 17:33 UTC. Time now 2017-Feb-22 08:38 UTC.
Position N 38°32' W 028°37'.
Warning: this ship's position is 8 days out of date.

Length 32 m; draft 2.3 m.

Type: Passenger vessel. MMSI: 204701250.

Date/timePositionNaut miles runAvg speedWind from/ knotsBaromVisibWave heightAir tempDewpointWater temp
2017-Feb-13 17:33N 38°32' W 028°37'0 0.0
2017-Feb-13 00:33N 38°32' W 028°37'4 4.3
2017-Feb-12 23:33N 38°32' W 028°32'  
2017-Feb-04 20:18N 38°32' W 028°37'4 5.8
2017-Feb-04 19:33N 38°32' W 028°32'1010.4
2017-Feb-04 18:33N 38°38' W 028°21'7 6.7
2017-Feb-04 17:33N 38°40' W 028°13'1212.2
2017-Feb-04 16:33N 38°35' W 028°27'5 4.8
2017-Feb-04 15:33N 38°32' W 028°32'0 0.0
2017-Feb-04 14:33N 38°32' W 028°32'8 7.9
2017-Feb-04 13:33N 38°37' W 028°23'9 9.4
2017-Feb-04 12:34N 38°40' W 028°12'1312.7
2017-Feb-04 11:33N 38°35' W 028°27'8 8.1
2017-Feb-04 10:33N 38°32' W 028°37'  
Track history (hours):
 
Tides and Currents Weather Stations Pressure Air Temp Water Temp Dewpoint Dewpoint Depression Visibility Wind Speed Wind Dir Waves Ship Positions

Cruzeiro Do Canal

Last reported at 2017-Feb-13 17:33 UTC. Time now 2017-Feb-22 08:38 UTC.
Position N 38°32' W 028°37'.
Warning: this ship's position is 8 days out of date.

Length 32 m; draft 2.3 m.

Type: Passenger vessel. MMSI: 204701250.

Date/timePositionNaut miles runAvg speedWind from/ knotsBaromVisibWave heightAir tempDewpointWater temp
2017-Feb-13 17:33N 38°32' W 028°37'0 0.0
2017-Feb-13 00:33N 38°32' W 028°37'4 4.3
2017-Feb-12 23:33N 38°32' W 028°32'  
2017-Feb-04 20:18N 38°32' W 028°37'4 5.8
2017-Feb-04 19:33N 38°32' W 028°32'1010.4
2017-Feb-04 18:33N 38°38' W 028°21'7 6.7
2017-Feb-04 17:33N 38°40' W 028°13'1212.2
2017-Feb-04 16:33N 38°35' W 028°27'5 4.8
2017-Feb-04 15:33N 38°32' W 028°32'0 0.0
2017-Feb-04 14:33N 38°32' W 028°32'8 7.9
2017-Feb-04 13:33N 38°37' W 028°23'9 9.4
2017-Feb-04 12:34N 38°40' W 028°12'1312.7
2017-Feb-04 11:33N 38°35' W 028°27'8 8.1
2017-Feb-04 10:33N 38°32' W 028°37'  

Dump ship's entire track history